OMAD/AZI METAR and TAF weather

Enter ICAO airport designator
Station Type Date Time Source
OMAD METAR 2020/01/24 03:00 UTC NOAA

OMAD 240300Z 31006KT 9999 BKN040 19/14 Q1018 NOSIG


Station Type Date Time Source
OMAD Decoded METAR 2020/01/24 03:00 UTC NOAA

Abu Dhabi Bateen Airport, United Arab Emirates (OMAD) 24-26N 054-28E 3M
Jan 23, 2020 - 10:00 PM EST / 2020.01.24 0300 UTC
Wind: from the NW (310 degrees) at 7 MPH (6 KT):0
Visibility: greater than 7 mile(s):0
Sky conditions: mostly cloudy
Temperature: 66 F (19 C)
Dew Point: 57 F (14 C)
Relative Humidity: 72%
Pressure (altimeter): 30.06 in. Hg (1018 hPa)
ob: OMAD 240300Z 31006KT 9999 BKN040 19/14 Q1018 NOSIG
cycle: 3

Station Type Date Time Source
OMAD TAF 2020/01/23 18:00 UTC NOAA

TAF OMAD 231700Z 2318/2500 34012KT 7000 SCT030
TEMPO 2318/2322 BKN014 PROB30
TEMPO 2319/2400 4000 SHRA FEW040TCU PROB40 2323/2406 28006KT
BECMG 2417/2419 31005KT

Example: see airport list